sensor_id;sensor_type;location;lat;lon;timestamp;P1;durP1;ratioP1;P2;durP2;ratioP2
4786;SDS011;62338;48.832;9.422;2022-12-18T00:01:46;39.40;;;20.50;;
4786;SDS011;62338;48.832;9.422;2022-12-18T00:03:49;36.17;;;20.10;;
4786;SDS011;62338;48.832;9.422;2022-12-18T00:05:53;37.27;;;20.67;;
4786;SDS011;62338;48.832;9.422;2022-12-18T00:07:55;32.17;;;19.57;;
4786;SDS011;62338;48.832;9.422;2022-12-18T00:09:56;34.93;;;19.10;;
4786;SDS011;62338;48.832;9.422;2022-12-18T00:11:58;31.93;;;18.40;;
4786;SDS011;62338;48.832;9.422;2022-12-18T00:14:15;29.90;;;18.97;;
4786;SDS011;62338;48.832;9.422;2022-12-18T00:16:18;27.87;;;16.83;;
4786;SDS011;62338;48.832;9.422;2022-12-18T00:18:22;30.67;;;18.63;;
4786;SDS011;62338;48.832;9.422;2022-12-18T00:20:23;35.63;;;19.17;;
4786;SDS011;62338;48.832;9.422;2022-12-18T00:22:26;35.80;;;20.70;;
4786;SDS011;62338;48.832;9.422;2022-12-18T00:24:28;34.87;;;20.00;;
4786;SDS011;62338;48.832;9.422;2022-12-18T00:26:31;34.00;;;19.83;;
4786;SDS011;62338;48.832;9.422;2022-12-18T00:28:34;32.83;;;19.00;;
4786;SDS011;62338;48.832;9.422;2022-12-18T00:30:36;35.00;;;20.70;;
4786;SDS011;62338;48.832;9.422;2022-12-18T00:32:38;36.60;;;20.67;;
4786;SDS011;62338;48.832;9.422;2022-12-18T00:34:40;32.63;;;18.67;;
4786;SDS011;62338;48.832;9.422;2022-12-18T00:36:42;36.23;;;20.00;;
4786;SDS011;62338;48.832;9.422;2022-12-18T00:38:44;39.23;;;19.57;;
4786;SDS011;62338;48.832;9.422;2022-12-18T00:40:46;36.57;;;19.33;;
4786;SDS011;62338;48.832;9.422;2022-12-18T00:42:48;33.47;;;19.57;;
4786;SDS011;62338;48.832;9.422;2022-12-18T00:44:59;37.03;;;19.20;;
4786;SDS011;62338;48.832;9.422;2022-12-18T00:47:01;31.83;;;18.60;;
4786;SDS011;62338;48.832;9.422;2022-12-18T00:49:03;33.53;;;19.30;;
4786;SDS011;62338;48.832;9.422;2022-12-18T00:51:05;34.00;;;18.90;;
4786;SDS011;62338;48.832;9.422;2022-12-18T00:53:07;32.47;;;18.20;;
4786;SDS011;62338;48.832;9.422;2022-12-18T00:55:09;30.33;;;17.30;;
4786;SDS011;62338;48.832;9.422;2022-12-18T00:57:12;33.67;;;19.17;;
4786;SDS011;62338;48.832;9.422;2022-12-18T00:59:14;34.90;;;19.13;;
4786;SDS011;62338;48.832;9.422;2022-12-18T01:01:16;31.97;;;17.70;;
4786;SDS011;62338;48.832;9.422;2022-12-18T01:03:19;31.03;;;18.43;;
4786;SDS011;62338;48.832;9.422;2022-12-18T01:05:21;30.67;;;17.77;;
4786;SDS011;62338;48.832;9.422;2022-12-18T01:07:22;31.17;;;18.03;;
4786;SDS011;62338;48.832;9.422;2022-12-18T01:09:24;37.90;;;20.60;;
4786;SDS011;62338;48.832;9.422;2022-12-18T01:11:27;29.00;;;16.40;;
4786;SDS011;62338;48.832;9.422;2022-12-18T01:13:29;30.97;;;16.83;;
4786;SDS011;62338;48.832;9.422;2022-12-18T01:15:30;28.43;;;17.60;;
4786;SDS011;62338;48.832;9.422;2022-12-18T01:17:32;27.40;;;16.30;;
4786;SDS011;62338;48.832;9.422;2022-12-18T01:19:34;37.80;;;18.83;;
4786;SDS011;62338;48.832;9.422;2022-12-18T01:21:36;24.37;;;15.20;;
4786;SDS011;62338;48.832;9.422;2022-12-18T01:23:38;28.60;;;17.47;;
4786;SDS011;62338;48.832;9.422;2022-12-18T01:25:40;28.73;;;15.10;;
4786;SDS011;62338;48.832;9.422;2022-12-18T01:27:42;26.43;;;14.10;;
4786;SDS011;62338;48.832;9.422;2022-12-18T01:29:44;31.10;;;16.27;;
4786;SDS011;62338;48.832;9.422;2022-12-18T01:31:46;33.87;;;16.10;;
4786;SDS011;62338;48.832;9.422;2022-12-18T01:33:49;26.00;;;15.70;;
4786;SDS011;62338;48.832;9.422;2022-12-18T01:35:52;29.57;;;15.57;;
4786;SDS011;62338;48.832;9.422;2022-12-18T01:37:54;28.30;;;15.73;;
4786;SDS011;62338;48.832;9.422;2022-12-18T01:39:56;28.57;;;17.50;;
4786;SDS011;62338;48.832;9.422;2022-12-18T01:41:59;33.30;;;18.10;;
4786;SDS011;62338;48.832;9.422;2022-12-18T01:44:45;35.77;;;19.37;;
4786;SDS011;62338;48.832;9.422;2022-12-18T01:46:43;30.93;;;17.43;;
4786;SDS011;62338;48.832;9.422;2022-12-18T01:48:46;33.33;;;17.80;;
4786;SDS011;62338;48.832;9.422;2022-12-18T01:50:50;29.07;;;16.43;;
4786;SDS011;62338;48.832;9.422;2022-12-18T01:52:53;30.80;;;16.43;;
4786;SDS011;62338;48.832;9.422;2022-12-18T01:54:57;31.50;;;17.20;;
4786;SDS011;62338;48.832;9.422;2022-12-18T01:57:01;35.13;;;17.77;;
4786;SDS011;62338;48.832;9.422;2022-12-18T01:59:04;30.03;;;17.83;;
4786;SDS011;62338;48.832;9.422;2022-12-18T02:01:09;26.30;;;15.80;;
4786;SDS011;62338;48.832;9.422;2022-12-18T02:03:11;34.80;;;17.40;;
4786;SDS011;62338;48.832;9.422;2022-12-18T02:05:16;37.53;;;19.90;;
4786;SDS011;62338;48.832;9.422;2022-12-18T02:07:35;27.67;;;15.93;;
4786;SDS011;62338;48.832;9.422;2022-12-18T02:09:59;35.37;;;15.90;;
4786;SDS011;62338;48.832;9.422;2022-12-18T02:12:27;31.33;;;16.03;;
4786;SDS011;62338;48.832;9.422;2022-12-18T02:14:38;25.20;;;12.97;;
4786;SDS011;62338;48.832;9.422;2022-12-18T02:18:56;31.03;;;15.70;;
4786;SDS011;62338;48.832;9.422;2022-12-18T02:21:12;24.13;;;15.10;;
4786;SDS011;62338;48.832;9.422;2022-12-18T02:28:28;25.17;;;14.83;;
4786;SDS011;62338;48.832;9.422;2022-12-18T02:30:33;24.93;;;15.10;;
4786;SDS011;62338;48.832;9.422;2022-12-18T02:32:40;28.73;;;15.70;;
4786;SDS011;62338;48.832;9.422;2022-12-18T02:34:44;27.13;;;14.57;;
4786;SDS011;62338;48.832;9.422;2022-12-18T02:36:47;27.73;;;12.73;;
4786;SDS011;62338;48.832;9.422;2022-12-18T02:38:51;23.33;;;13.20;;
4786;SDS011;62338;48.832;9.422;2022-12-18T02:40:54;24.47;;;14.00;;
4786;SDS011;62338;48.832;9.422;2022-12-18T02:43:06;25.97;;;14.90;;
4786;SDS011;62338;48.832;9.422;2022-12-18T02:45:13;26.33;;;13.67;;
4786;SDS011;62338;48.832;9.422;2022-12-18T02:47:16;25.37;;;13.33;;
4786;SDS011;62338;48.832;9.422;2022-12-18T02:49:26;29.33;;;15.17;;
4786;SDS011;62338;48.832;9.422;2022-12-18T02:51:52;24.93;;;13.20;;
4786;SDS011;62338;48.832;9.422;2022-12-18T02:54:09;25.10;;;12.87;;
4786;SDS011;62338;48.832;9.422;2022-12-18T02:56:20;22.83;;;12.60;;
4786;SDS011;62338;48.832;9.422;2022-12-18T02:58:40;23.27;;;12.90;;
4786;SDS011;62338;48.832;9.422;2022-12-18T03:01:09;21.77;;;12.03;;
4786;SDS011;62338;48.832;9.422;2022-12-18T03:03:40;24.00;;;12.90;;
4786;SDS011;62338;48.832;9.422;2022-12-18T03:05:55;21.20;;;11.23;;
4786;SDS011;62338;48.832;9.422;2022-12-18T03:08:06;27.20;;;15.17;;
4786;SDS011;62338;48.832;9.422;2022-12-18T03:10:14;22.57;;;12.40;;
4786;SDS011;62338;48.832;9.422;2022-12-18T03:12:23;27.20;;;13.90;;
4786;SDS011;62338;48.832;9.422;2022-12-18T03:14:36;25.33;;;14.20;;
4786;SDS011;62338;48.832;9.422;2022-12-18T03:16:41;28.47;;;13.63;;
4786;SDS011;62338;48.832;9.422;2022-12-18T03:20:52;26.37;;;14.77;;
4786;SDS011;62338;48.832;9.422;2022-12-18T03:23:02;27.87;;;15.23;;
4786;SDS011;62338;48.832;9.422;2022-12-18T03:25:11;27.77;;;14.50;;
4786;SDS011;62338;48.832;9.422;2022-12-18T03:27:17;23.57;;;13.83;;
4786;SDS011;62338;48.832;9.422;2022-12-18T03:29:21;26.07;;;14.40;;
4786;SDS011;62338;48.832;9.422;2022-12-18T03:31:36;28.63;;;14.20;;
4786;SDS011;62338;48.832;9.422;2022-12-18T03:33:42;24.77;;;14.73;;
4786;SDS011;62338;48.832;9.422;2022-12-18T03:35:48;26.47;;;14.53;;
4786;SDS011;62338;48.832;9.422;2022-12-18T03:37:54;29.73;;;15.73;;
4786;SDS011;62338;48.832;9.422;2022-12-18T03:39:56;28.77;;;15.40;;
4786;SDS011;62338;48.832;9.422;2022-12-18T03:42:04;30.80;;;15.77;;
4786;SDS011;62338;48.832;9.422;2022-12-18T03:46:33;29.47;;;15.50;;
4786;SDS011;62338;48.832;9.422;2022-12-18T03:48:50;29.10;;;15.50;;
4786;SDS011;62338;48.832;9.422;2022-12-18T03:53:38;28.47;;;15.17;;
4786;SDS011;62338;48.832;9.422;2022-12-18T03:55:48;28.53;;;15.10;;
4786;SDS011;62338;48.832;9.422;2022-12-18T03:57:51;34.20;;;15.90;;
4786;SDS011;62338;48.832;9.422;2022-12-18T03:59:56;27.67;;;15.30;;
4786;SDS011;62338;48.832;9.422;2022-12-18T04:02:01;29.63;;;16.57;;
4786;SDS011;62338;48.832;9.422;2022-12-18T04:04:06;27.43;;;16.27;;
4786;SDS011;62338;48.832;9.422;2022-12-18T04:06:11;33.30;;;16.63;;
4786;SDS011;62338;48.832;9.422;2022-12-18T04:08:13;29.47;;;15.70;;
4786;SDS011;62338;48.832;9.422;2022-12-18T04:10:16;30.57;;;16.73;;
4786;SDS011;62338;48.832;9.422;2022-12-18T04:12:18;35.80;;;15.47;;
4786;SDS011;62338;48.832;9.422;2022-12-18T04:14:20;31.07;;;12.50;;
4786;SDS011;62338;48.832;9.422;2022-12-18T04:16:22;35.57;;;17.63;;
4786;SDS011;62338;48.832;9.422;2022-12-18T04:18:24;34.10;;;17.40;;
4786;SDS011;62338;48.832;9.422;2022-12-18T04:20:27;31.47;;;16.73;;
4786;SDS011;62338;48.832;9.422;2022-12-18T04:22:28;33.63;;;17.43;;
4786;SDS011;62338;48.832;9.422;2022-12-18T04:24:30;31.33;;;16.20;;
4786;SDS011;62338;48.832;9.422;2022-12-18T04:26:32;31.87;;;17.57;;
4786;SDS011;62338;48.832;9.422;2022-12-18T04:28:34;30.50;;;15.80;;
4786;SDS011;62338;48.832;9.422;2022-12-18T04:30:35;31.60;;;16.23;;
4786;SDS011;62338;48.832;9.422;2022-12-18T04:32:37;30.97;;;15.53;;
4786;SDS011;62338;48.832;9.422;2022-12-18T04:34:39;33.60;;;17.80;;
4786;SDS011;62338;48.832;9.422;2022-12-18T04:36:41;35.97;;;18.07;;
4786;SDS011;62338;48.832;9.422;2022-12-18T04:38:43;34.60;;;16.50;;
4786;SDS011;62338;48.832;9.422;2022-12-18T04:40:45;35.83;;;15.10;;
4786;SDS011;62338;48.832;9.422;2022-12-18T04:42:46;32.27;;;14.57;;
4786;SDS011;62338;48.832;9.422;2022-12-18T04:44:48;35.40;;;16.90;;
4786;SDS011;62338;48.832;9.422;2022-12-18T04:46:50;39.40;;;18.27;;
4786;SDS011;62338;48.832;9.422;2022-12-18T04:48:52;35.77;;;15.43;;
4786;SDS011;62338;48.832;9.422;2022-12-18T04:50:54;23.87;;;12.13;;
4786;SDS011;62338;48.832;9.422;2022-12-18T04:52:56;36.63;;;17.50;;
4786;SDS011;62338;48.832;9.422;2022-12-18T04:54:58;34.50;;;16.33;;
4786;SDS011;62338;48.832;9.422;2022-12-18T04:56:59;32.33;;;15.07;;
4786;SDS011;62338;48.832;9.422;2022-12-18T04:59:01;37.63;;;18.60;;
4786;SDS011;62338;48.832;9.422;2022-12-18T05:01:05;38.00;;;18.20;;
4786;SDS011;62338;48.832;9.422;2022-12-18T05:03:08;33.43;;;17.67;;
4786;SDS011;62338;48.832;9.422;2022-12-18T05:05:10;37.90;;;18.23;;
4786;SDS011;62338;48.832;9.422;2022-12-18T05:07:12;37.87;;;18.37;;
4786;SDS011;62338;48.832;9.422;2022-12-18T05:09:14;38.43;;;18.87;;
4786;SDS011;62338;48.832;9.422;2022-12-18T05:11:16;41.47;;;17.93;;
4786;SDS011;62338;48.832;9.422;2022-12-18T05:13:19;38.90;;;17.20;;
4786;SDS011;62338;48.832;9.422;2022-12-18T05:15:20;36.90;;;19.50;;
4786;SDS011;62338;48.832;9.422;2022-12-18T05:17:22;40.80;;;18.80;;
4786;SDS011;62338;48.832;9.422;2022-12-18T05:19:24;46.70;;;18.40;;
4786;SDS011;62338;48.832;9.422;2022-12-18T05:21:26;40.07;;;17.83;;
4786;SDS011;62338;48.832;9.422;2022-12-18T05:23:28;42.03;;;18.10;;
4786;SDS011;62338;48.832;9.422;2022-12-18T05:25:30;38.90;;;17.53;;
4786;SDS011;62338;48.832;9.422;2022-12-18T05:27:32;48.33;;;18.20;;
4786;SDS011;62338;48.832;9.422;2022-12-18T05:29:34;41.47;;;17.40;;
4786;SDS011;62338;48.832;9.422;2022-12-18T05:31:35;43.37;;;18.73;;
4786;SDS011;62338;48.832;9.422;2022-12-18T05:33:40;42.27;;;19.80;;
4786;SDS011;62338;48.832;9.422;2022-12-18T05:35:42;46.33;;;19.27;;
4786;SDS011;62338;48.832;9.422;2022-12-18T05:37:44;44.63;;;18.27;;
4786;SDS011;62338;48.832;9.422;2022-12-18T05:39:46;36.57;;;16.63;;
4786;SDS011;62338;48.832;9.422;2022-12-18T05:41:48;42.47;;;19.50;;
4786;SDS011;62338;48.832;9.422;2022-12-18T05:43:50;42.80;;;19.73;;
4786;SDS011;62338;48.832;9.422;2022-12-18T05:45:52;41.17;;;19.17;;
4786;SDS011;62338;48.832;9.422;2022-12-18T05:47:54;50.20;;;20.70;;
4786;SDS011;62338;48.832;9.422;2022-12-18T05:49:57;40.37;;;18.20;;
4786;SDS011;62338;48.832;9.422;2022-12-18T05:51:59;49.87;;;19.67;;
4786;SDS011;62338;48.832;9.422;2022-12-18T05:54:01;45.13;;;19.43;;
4786;SDS011;62338;48.832;9.422;2022-12-18T05:56:04;50.57;;;19.37;;
4786;SDS011;62338;48.832;9.422;2022-12-18T05:58:08;45.37;;;17.50;;
4786;SDS011;62338;48.832;9.422;2022-12-18T06:00:12;46.53;;;20.20;;
4786;SDS011;62338;48.832;9.422;2022-12-18T06:02:14;45.50;;;20.40;;
4786;SDS011;62338;48.832;9.422;2022-12-18T06:04:16;51.93;;;20.93;;
4786;SDS011;62338;48.832;9.422;2022-12-18T06:06:19;44.73;;;21.83;;
4786;SDS011;62338;48.832;9.422;2022-12-18T06:08:23;43.97;;;19.50;;
4786;SDS011;62338;48.832;9.422;2022-12-18T06:10:25;36.17;;;16.37;;
4786;SDS011;62338;48.832;9.422;2022-12-18T06:12:27;45.97;;;20.13;;
4786;SDS011;62338;48.832;9.422;2022-12-18T06:14:29;42.67;;;19.20;;
4786;SDS011;62338;48.832;9.422;2022-12-18T06:16:30;44.80;;;20.00;;
4786;SDS011;62338;48.832;9.422;2022-12-18T06:18:32;38.70;;;15.60;;
4786;SDS011;62338;48.832;9.422;2022-12-18T06:20:34;47.50;;;20.67;;
4786;SDS011;62338;48.832;9.422;2022-12-18T06:22:38;46.93;;;18.87;;
4786;SDS011;62338;48.832;9.422;2022-12-18T06:24:40;44.83;;;21.20;;
4786;SDS011;62338;48.832;9.422;2022-12-18T06:26:41;49.00;;;23.27;;
4786;SDS011;62338;48.832;9.422;2022-12-18T06:28:43;49.10;;;21.67;;
4786;SDS011;62338;48.832;9.422;2022-12-18T06:30:46;45.87;;;22.40;;
4786;SDS011;62338;48.832;9.422;2022-12-18T06:32:49;44.47;;;18.50;;
4786;SDS011;62338;48.832;9.422;2022-12-18T06:34:57;48.03;;;22.40;;
4786;SDS011;62338;48.832;9.422;2022-12-18T06:36:58;48.23;;;19.40;;
4786;SDS011;62338;48.832;9.422;2022-12-18T06:39:00;45.77;;;20.70;;
4786;SDS011;62338;48.832;9.422;2022-12-18T06:41:15;46.53;;;19.63;;
4786;SDS011;62338;48.832;9.422;2022-12-18T06:43:18;47.20;;;21.47;;
4786;SDS011;62338;48.832;9.422;2022-12-18T06:45:20;48.23;;;22.27;;
4786;SDS011;62338;48.832;9.422;2022-12-18T06:47:22;42.77;;;18.70;;
4786;SDS011;62338;48.832;9.422;2022-12-18T06:49:24;49.27;;;21.10;;
4786;SDS011;62338;48.832;9.422;2022-12-18T06:51:30;47.77;;;20.87;;
4786;SDS011;62338;48.832;9.422;2022-12-18T06:53:33;41.50;;;17.90;;
4786;SDS011;62338;48.832;9.422;2022-12-18T06:55:34;46.70;;;21.97;;
4786;SDS011;62338;48.832;9.422;2022-12-18T06:57:37;50.40;;;21.10;;
4786;SDS011;62338;48.832;9.422;2022-12-18T06:59:39;52.13;;;21.00;;
4786;SDS011;62338;48.832;9.422;2022-12-18T07:01:41;63.97;;;25.30;;
4786;SDS011;62338;48.832;9.422;2022-12-18T07:03:45;50.07;;;22.53;;
4786;SDS011;62338;48.832;9.422;2022-12-18T07:05:48;43.10;;;18.93;;
4786;SDS011;62338;48.832;9.422;2022-12-18T07:07:49;53.13;;;26.97;;
4786;SDS011;62338;48.832;9.422;2022-12-18T07:09:51;62.40;;;30.33;;
4786;SDS011;62338;48.832;9.422;2022-12-18T07:11:54;50.57;;;21.63;;
4786;SDS011;62338;48.832;9.422;2022-12-18T07:13:56;95.43;;;44.77;;
4786;SDS011;62338;48.832;9.422;2022-12-18T07:16:11;60.00;;;32.10;;
4786;SDS011;62338;48.832;9.422;2022-12-18T07:18:25;49.30;;;25.50;;
4786;SDS011;62338;48.832;9.422;2022-12-18T07:20:28;40.50;;;15.90;;
4786;SDS011;62338;48.832;9.422;2022-12-18T07:22:31;49.97;;;21.80;;
4786;SDS011;62338;48.832;9.422;2022-12-18T07:24:33;46.93;;;17.80;;
4786;SDS011;62338;48.832;9.422;2022-12-18T07:26:36;52.70;;;23.17;;
4786;SDS011;62338;48.832;9.422;2022-12-18T07:28:38;45.07;;;19.43;;
4786;SDS011;62338;48.832;9.422;2022-12-18T07:30:42;41.17;;;19.17;;
4786;SDS011;62338;48.832;9.422;2022-12-18T07:32:43;51.70;;;20.90;;
4786;SDS011;62338;48.832;9.422;2022-12-18T07:34:45;45.07;;;20.23;;
4786;SDS011;62338;48.832;9.422;2022-12-18T07:36:47;42.83;;;19.93;;
4786;SDS011;62338;48.832;9.422;2022-12-18T07:38:49;46.93;;;20.67;;
4786;SDS011;62338;48.832;9.422;2022-12-18T07:40:52;43.73;;;17.60;;
4786;SDS011;62338;48.832;9.422;2022-12-18T07:42:54;48.03;;;20.77;;
4786;SDS011;62338;48.832;9.422;2022-12-18T07:44:56;41.37;;;19.07;;
4786;SDS011;62338;48.832;9.422;2022-12-18T07:46:59;44.50;;;20.07;;
4786;SDS011;62338;48.832;9.422;2022-12-18T07:49:01;50.00;;;21.90;;
4786;SDS011;62338;48.832;9.422;2022-12-18T07:51:03;48.47;;;21.40;;
4786;SDS011;62338;48.832;9.422;2022-12-18T07:53:07;46.17;;;19.50;;
4786;SDS011;62338;48.832;9.422;2022-12-18T07:55:08;47.83;;;17.80;;
4786;SDS011;62338;48.832;9.422;2022-12-18T07:57:10;53.30;;;21.93;;
4786;SDS011;62338;48.832;9.422;2022-12-18T07:59:32;66.57;;;28.50;;
4786;SDS011;62338;48.832;9.422;2022-12-18T08:01:34;50.97;;;23.60;;
4786;SDS011;62338;48.832;9.422;2022-12-18T08:03:36;43.53;;;20.07;;
4786;SDS011;62338;48.832;9.422;2022-12-18T08:05:40;48.60;;;20.80;;
4786;SDS011;62338;48.832;9.422;2022-12-18T08:07:42;43.00;;;18.97;;
4786;SDS011;62338;48.832;9.422;2022-12-18T08:09:43;45.87;;;21.13;;
4786;SDS011;62338;48.832;9.422;2022-12-18T08:11:45;41.67;;;19.90;;
4786;SDS011;62338;48.832;9.422;2022-12-18T08:13:47;38.77;;;18.93;;
4786;SDS011;62338;48.832;9.422;2022-12-18T08:15:56;35.43;;;17.90;;
4786;SDS011;62338;48.832;9.422;2022-12-18T08:17:59;37.53;;;19.47;;
4786;SDS011;62338;48.832;9.422;2022-12-18T08:20:01;41.77;;;20.03;;
4786;SDS011;62338;48.832;9.422;2022-12-18T08:22:04;38.60;;;17.27;;
4786;SDS011;62338;48.832;9.422;2022-12-18T08:24:06;47.33;;;21.03;;
4786;SDS011;62338;48.832;9.422;2022-12-18T08:26:07;38.20;;;18.73;;
4786;SDS011;62338;48.832;9.422;2022-12-18T08:28:09;34.07;;;15.53;;
4786;SDS011;62338;48.832;9.422;2022-12-18T08:30:12;41.37;;;17.97;;
4786;SDS011;62338;48.832;9.422;2022-12-18T08:32:14;37.50;;;20.13;;
4786;SDS011;62338;48.832;9.422;2022-12-18T08:34:16;35.23;;;17.10;;
4786;SDS011;62338;48.832;9.422;2022-12-18T08:36:18;33.50;;;15.03;;
4786;SDS011;62338;48.832;9.422;2022-12-18T08:38:20;36.53;;;18.33;;
4786;SDS011;62338;48.832;9.422;2022-12-18T08:40:23;36.70;;;17.90;;
4786;SDS011;62338;48.832;9.422;2022-12-18T08:42:25;34.47;;;18.60;;
4786;SDS011;62338;48.832;9.422;2022-12-18T08:44:46;36.33;;;16.80;;
4786;SDS011;62338;48.832;9.422;2022-12-18T08:46:47;28.40;;;16.13;;
4786;SDS011;62338;48.832;9.422;2022-12-18T08:48:50;28.00;;;13.50;;
4786;SDS011;62338;48.832;9.422;2022-12-18T08:50:56;29.67;;;15.17;;
4786;SDS011;62338;48.832;9.422;2022-12-18T08:52:59;32.80;;;15.97;;
4786;SDS011;62338;48.832;9.422;2022-12-18T08:55:01;31.30;;;17.20;;
4786;SDS011;62338;48.832;9.422;2022-12-18T08:57:03;28.00;;;16.20;;
4786;SDS011;62338;48.832;9.422;2022-12-18T08:59:05;33.87;;;17.80;;
4786;SDS011;62338;48.832;9.422;2022-12-18T09:01:07;31.50;;;15.17;;
4786;SDS011;62338;48.832;9.422;2022-12-18T09:03:14;36.07;;;17.00;;
4786;SDS011;62338;48.832;9.422;2022-12-18T09:05:17;32.20;;;15.80;;
4786;SDS011;62338;48.832;9.422;2022-12-18T09:07:19;33.23;;;16.60;;
4786;SDS011;62338;48.832;9.422;2022-12-18T09:09:20;41.07;;;18.50;;
4786;SDS011;62338;48.832;9.422;2022-12-18T09:11:24;28.63;;;14.90;;
4786;SDS011;62338;48.832;9.422;2022-12-18T09:13:27;31.53;;;13.97;;
4786;SDS011;62338;48.832;9.422;2022-12-18T09:15:29;32.43;;;17.00;;
4786;SDS011;62338;48.832;9.422;2022-12-18T09:17:31;34.40;;;17.50;;
4786;SDS011;62338;48.832;9.422;2022-12-18T09:19:33;36.10;;;16.80;;
4786;SDS011;62338;48.832;9.422;2022-12-18T09:21:35;30.93;;;15.40;;
4786;SDS011;62338;48.832;9.422;2022-12-18T09:23:37;30.70;;;16.77;;
4786;SDS011;62338;48.832;9.422;2022-12-18T09:25:39;32.83;;;16.80;;
4786;SDS011;62338;48.832;9.422;2022-12-18T09:27:41;33.87;;;17.80;;
4786;SDS011;62338;48.832;9.422;2022-12-18T09:29:43;29.07;;;15.67;;
4786;SDS011;62338;48.832;9.422;2022-12-18T09:31:45;30.13;;;14.23;;
4786;SDS011;62338;48.832;9.422;2022-12-18T09:33:47;29.80;;;13.37;;
4786;SDS011;62338;48.832;9.422;2022-12-18T09:35:49;30.90;;;15.20;;
4786;SDS011;62338;48.832;9.422;2022-12-18T09:37:51;31.00;;;15.83;;
4786;SDS011;62338;48.832;9.422;2022-12-18T09:39:53;30.67;;;15.37;;
4786;SDS011;62338;48.832;9.422;2022-12-18T09:41:55;20.97;;;11.13;;
4786;SDS011;62338;48.832;9.422;2022-12-18T09:44:00;36.20;;;17.20;;
4786;SDS011;62338;48.832;9.422;2022-12-18T09:46:07;33.67;;;16.40;;
4786;SDS011;62338;48.832;9.422;2022-12-18T09:48:19;30.80;;;14.30;;
4786;SDS011;62338;48.832;9.422;2022-12-18T09:50:32;30.80;;;16.60;;
4786;SDS011;62338;48.832;9.422;2022-12-18T09:52:42;31.87;;;15.63;;
4786;SDS011;62338;48.832;9.422;2022-12-18T09:54:53;22.10;;;10.83;;
4786;SDS011;62338;48.832;9.422;2022-12-18T09:57:02;31.87;;;14.70;;
4786;SDS011;62338;48.832;9.422;2022-12-18T09:59:05;22.53;;;12.53;;
4786;SDS011;62338;48.832;9.422;2022-12-18T10:01:11;31.47;;;16.80;;
4786;SDS011;62338;48.832;9.422;2022-12-18T10:03:15;31.03;;;16.13;;
4786;SDS011;62338;48.832;9.422;2022-12-18T10:05:20;28.70;;;14.20;;
4786;SDS011;62338;48.832;9.422;2022-12-18T10:08:05;31.07;;;14.80;;
4786;SDS011;62338;48.832;9.422;2022-12-18T10:12:49;29.60;;;14.30;;
4786;SDS011;62338;48.832;9.422;2022-12-18T10:24:37;31.47;;;15.17;;
4786;SDS011;62338;48.832;9.422;2022-12-18T10:26:42;34.53;;;16.93;;
4786;SDS011;62338;48.832;9.422;2022-12-18T10:28:45;33.87;;;16.20;;
4786;SDS011;62338;48.832;9.422;2022-12-18T10:30:47;33.00;;;15.53;;
4786;SDS011;62338;48.832;9.422;2022-12-18T10:32:49;30.60;;;16.07;;
4786;SDS011;62338;48.832;9.422;2022-12-18T10:34:51;35.50;;;16.03;;
4786;SDS011;62338;48.832;9.422;2022-12-18T10:37:01;27.73;;;13.27;;
4786;SDS011;62338;48.832;9.422;2022-12-18T10:39:18;33.23;;;16.10;;
4786;SDS011;62338;48.832;9.422;2022-12-18T10:41:25;30.70;;;15.77;;
4786;SDS011;62338;48.832;9.422;2022-12-18T10:45:32;32.23;;;16.50;;
4786;SDS011;62338;48.832;9.422;2022-12-18T10:47:34;22.40;;;10.00;;
4786;SDS011;62338;48.832;9.422;2022-12-18T10:49:36;31.80;;;16.33;;
4786;SDS011;62338;48.832;9.422;2022-12-18T10:51:50;32.63;;;17.60;;
4786;SDS011;62338;48.832;9.422;2022-12-18T10:54:06;33.53;;;15.50;;
4786;SDS011;62338;48.832;9.422;2022-12-18T10:56:19;33.13;;;17.10;;
4786;SDS011;62338;48.832;9.422;2022-12-18T10:58:26;29.43;;;15.13;;
4786;SDS011;62338;48.832;9.422;2022-12-18T11:00:29;32.70;;;17.20;;
4786;SDS011;62338;48.832;9.422;2022-12-18T11:02:35;30.20;;;15.93;;
4786;SDS011;62338;48.832;9.422;2022-12-18T11:04:40;27.80;;;15.97;;
4786;SDS011;62338;48.832;9.422;2022-12-18T11:06:53;33.00;;;15.83;;
4786;SDS011;62338;48.832;9.422;2022-12-18T11:09:04;33.90;;;15.80;;
4786;SDS011;62338;48.832;9.422;2022-12-18T11:11:35;27.10;;;10.60;;
4786;SDS011;62338;48.832;9.422;2022-12-18T11:13:38;27.30;;;14.33;;
4786;SDS011;62338;48.832;9.422;2022-12-18T11:15:41;32.23;;;15.30;;
4786;SDS011;62338;48.832;9.422;2022-12-18T11:17:43;29.77;;;14.70;;
4786;SDS011;62338;48.832;9.422;2022-12-18T11:19:55;33.23;;;16.13;;
4786;SDS011;62338;48.832;9.422;2022-12-18T11:21:58;32.83;;;14.90;;
4786;SDS011;62338;48.832;9.422;2022-12-18T11:24:01;31.80;;;15.80;;
4786;SDS011;62338;48.832;9.422;2022-12-18T11:26:04;33.70;;;16.70;;
4786;SDS011;62338;48.832;9.422;2022-12-18T11:30:39;35.90;;;17.50;;
4786;SDS011;62338;48.832;9.422;2022-12-18T11:32:44;31.73;;;16.87;;
4786;SDS011;62338;48.832;9.422;2022-12-18T11:34:51;34.40;;;16.70;;
4786;SDS011;62338;48.832;9.422;2022-12-18T11:36:59;33.77;;;17.30;;
4786;SDS011;62338;48.832;9.422;2022-12-18T11:39:27;37.10;;;18.50;;
4786;SDS011;62338;48.832;9.422;2022-12-18T11:41:53;32.27;;;16.80;;
4786;SDS011;62338;48.832;9.422;2022-12-18T11:44:11;34.90;;;17.37;;
4786;SDS011;62338;48.832;9.422;2022-12-18T11:46:30;33.60;;;17.53;;
4786;SDS011;62338;48.832;9.422;2022-12-18T11:48:49;43.63;;;21.97;;
4786;SDS011;62338;48.832;9.422;2022-12-18T11:51:00;34.17;;;18.63;;
4786;SDS011;62338;48.832;9.422;2022-12-18T11:53:08;33.23;;;18.30;;
4786;SDS011;62338;48.832;9.422;2022-12-18T11:55:16;34.30;;;16.37;;
4786;SDS011;62338;48.832;9.422;2022-12-18T11:57:43;31.27;;;17.03;;
4786;SDS011;62338;48.832;9.422;2022-12-18T12:02:22;37.73;;;19.47;;
4786;SDS011;62338;48.832;9.422;2022-12-18T12:11:31;35.63;;;17.50;;
4786;SDS011;62338;48.832;9.422;2022-12-18T12:14:18;31.03;;;16.93;;
4786;SDS011;62338;48.832;9.422;2022-12-18T12:16:24;31.40;;;17.00;;
4786;SDS011;62338;48.832;9.422;2022-12-18T12:21:25;35.43;;;19.20;;
4786;SDS011;62338;48.832;9.422;2022-12-18T12:25:49;34.50;;;16.33;;
4786;SDS011;62338;48.832;9.422;2022-12-18T12:28:19;33.70;;;18.27;;
4786;SDS011;62338;48.832;9.422;2022-12-18T12:30:39;33.30;;;16.17;;
4786;SDS011;62338;48.832;9.422;2022-12-18T12:40:26;30.63;;;16.20;;
4786;SDS011;62338;48.832;9.422;2022-12-18T12:42:53;35.07;;;17.30;;
4786;SDS011;62338;48.832;9.422;2022-12-18T12:45:25;35.13;;;16.63;;
4786;SDS011;62338;48.832;9.422;2022-12-18T12:47:41;30.90;;;17.13;;
4786;SDS011;62338;48.832;9.422;2022-12-18T12:49:46;30.50;;;17.43;;
4786;SDS011;62338;48.832;9.422;2022-12-18T12:52:05;31.97;;;16.70;;
4786;SDS011;62338;48.832;9.422;2022-12-18T12:54:28;36.80;;;18.07;;
4786;SDS011;62338;48.832;9.422;2022-12-18T12:56:39;35.33;;;17.53;;
4786;SDS011;62338;48.832;9.422;2022-12-18T12:59:05;32.10;;;18.20;;
4786;SDS011;62338;48.832;9.422;2022-12-18T13:06:05;39.33;;;18.70;;
4786;SDS011;62338;48.832;9.422;2022-12-18T13:08:25;61.00;;;27.33;;
4786;SDS011;62338;48.832;9.422;2022-12-18T13:10:36;74.53;;;34.03;;
4786;SDS011;62338;48.832;9.422;2022-12-18T13:12:56;55.80;;;25.53;;
4786;SDS011;62338;48.832;9.422;2022-12-18T13:15:13;58.47;;;26.13;;
4786;SDS011;62338;48.832;9.422;2022-12-18T13:17:27;46.77;;;21.53;;
4786;SDS011;62338;48.832;9.422;2022-12-18T13:19:30;58.03;;;26.00;;
4786;SDS011;62338;48.832;9.422;2022-12-18T13:21:32;30.70;;;17.93;;
4786;SDS011;62338;48.832;9.422;2022-12-18T13:23:38;35.40;;;17.90;;
4786;SDS011;62338;48.832;9.422;2022-12-18T13:25:41;47.53;;;21.80;;